AFR8F TFFR-TKPK
Flight info
| Callsign | AFR8F |
|---|---|
| Flight time | 0h 20m |
| Altitude | 14000 |
| Route | BIMBO2F BIMBO DCT ANASU |
| Aircraft | A320/M-SDE3FGHIRWY/LB1 |
Departure
| Time | 2026-04-29 17:51 |
|---|---|
| Airport | Maryse Condé International Airport (TFFR) |
Arrival
| Time | 2026-04-29 18:11 |
|---|---|
| Airport | Robert L. Bradshaw International Airport (TKPK) |
| Time | Latitude | Longitude | Altitude | Speed | Heading |
|---|---|---|---|---|---|
| 2026-04-29 17:50 | 16.39827 | -61.73007 | 8245 ft | 297 kts | 317° |
| 2026-04-29 17:51 | 16.41322 | -61.74510 | 9013 ft | 300 kts | 317° |
| 2026-04-29 17:51 | 16.42801 | -61.76003 | 9770 ft | 301 kts | 317° |
| 2026-04-29 17:51 | 16.44318 | -61.77537 | 10354 ft | 308 kts | 316° |
| 2026-04-29 17:51 | 16.45900 | -61.79133 | 10666 ft | 325 kts | 316° |
| 2026-04-29 17:52 | 16.47568 | -61.80809 | 10948 ft | 341 kts | 316° |
| 2026-04-29 17:52 | 16.48721 | -61.81967 | 11119 ft | 352 kts | 316° |
| 2026-04-29 17:52 | 16.51142 | -61.84401 | 11655 ft | 365 kts | 316° |
| 2026-04-29 17:52 | 16.52965 | -61.86261 | 12271 ft | 368 kts | 314° |
| 2026-04-29 17:53 | 16.54745 | -61.88187 | 12898 ft | 370 kts | 312° |
| 2026-04-29 17:53 | 16.56498 | -61.90171 | 13521 ft | 373 kts | 311° |
| 2026-04-29 17:53 | 16.58218 | -61.92151 | 13879 ft | 374 kts | 310° |
| 2026-04-29 17:53 | 16.59971 | -61.94171 | 13977 ft | 380 kts | 311° |
| 2026-04-29 17:54 | 16.61798 | -61.96268 | 14004 ft | 398 kts | 311° |
| 2026-04-29 17:54 | 16.63688 | -61.98421 | 14006 ft | 404 kts | 311° |
| 2026-04-29 17:54 | 16.65593 | -62.00581 | 14016 ft | 404 kts | 311° |
| 2026-04-29 17:54 | 16.67497 | -62.02735 | 14027 ft | 403 kts | 311° |
| 2026-04-29 17:55 | 16.69403 | -62.04883 | 14037 ft | 403 kts | 311° |
| 2026-04-29 17:55 | 16.71312 | -62.07035 | 14044 ft | 403 kts | 311° |
| 2026-04-29 17:55 | 16.73219 | -62.09185 | 14049 ft | 403 kts | 311° |
| 2026-04-29 17:55 | 16.75095 | -62.11303 | 14058 ft | 402 kts | 311° |
| 2026-04-29 17:56 | 16.76997 | -62.13448 | 14054 ft | 402 kts | 311° |
| 2026-04-29 17:56 | 16.78900 | -62.15594 | 14057 ft | 402 kts | 311° |
| 2026-04-29 17:56 | 16.80796 | -62.17737 | 14057 ft | 402 kts | 311° |
| 2026-04-29 17:56 | 16.82695 | -62.19884 | 14055 ft | 402 kts | 311° |
| 2026-04-29 17:57 | 16.84591 | -62.22031 | 14055 ft | 402 kts | 311° |
| 2026-04-29 17:57 | 16.86484 | -62.24183 | 14053 ft | 402 kts | 311° |
| 2026-04-29 17:57 | 16.88374 | -62.26332 | 14049 ft | 402 kts | 311° |
| 2026-04-29 17:57 | 16.89629 | -62.27754 | 14044 ft | 402 kts | 311° |
| 2026-04-29 17:58 | 16.92163 | -62.30628 | 14033 ft | 402 kts | 311° |
| 2026-04-29 17:58 | 16.94058 | -62.32776 | 14023 ft | 402 kts | 311° |
| 2026-04-29 17:58 | 16.95927 | -62.34898 | 14017 ft | 402 kts | 311° |
| 2026-04-29 17:58 | 16.97806 | -62.37053 | 14008 ft | 402 kts | 311° |
| 2026-04-29 17:59 | 16.99679 | -62.39234 | 13998 ft | 401 kts | 310° |
| 2026-04-29 17:59 | 17.01535 | -62.41418 | 13995 ft | 402 kts | 310° |
| 2026-04-29 17:59 | 17.03353 | -62.43566 | 13958 ft | 386 kts | 310° |
| 2026-04-29 17:59 | 17.05132 | -62.45672 | 13278 ft | 386 kts | 310° |
| 2026-04-29 18:00 | 17.06909 | -62.47777 | 12611 ft | 385 kts | 310° |
| 2026-04-29 18:00 | 17.08680 | -62.49865 | 12012 ft | 382 kts | 311° |
| 2026-04-29 18:00 | 17.10441 | -62.51934 | 11405 ft | 380 kts | 311° |
| 2026-04-29 18:00 | 17.12193 | -62.53990 | 10815 ft | 377 kts | 312° |
| 2026-04-29 18:01 | 17.13904 | -62.56000 | 10629 ft | 363 kts | 312° |
| 2026-04-29 18:01 | 17.15544 | -62.57931 | 10517 ft | 347 kts | 312° |
| 2026-04-29 18:01 | 17.17099 | -62.59761 | 10402 ft | 333 kts | 312° |
| 2026-04-29 18:01 | 17.18606 | -62.61534 | 10287 ft | 321 kts | 312° |
| 2026-04-29 18:02 | 17.20065 | -62.63249 | 10180 ft | 309 kts | 312° |
| 2026-04-29 18:02 | 17.21469 | -62.64900 | 10040 ft | 298 kts | 313° |
| 2026-04-29 18:02 | 17.22837 | -62.66511 | 9726 ft | 295 kts | 312° |
| 2026-04-29 18:02 | 17.24193 | -62.68112 | 9315 ft | 294 kts | 312° |
| 2026-04-29 18:03 | 17.25548 | -62.69714 | 8893 ft | 293 kts | 312° |
| 2026-04-29 18:03 | 17.26837 | -62.71252 | 8481 ft | 293 kts | 309° |
| 2026-04-29 18:03 | 17.27755 | -62.73131 | 8084 ft | 292 kts | 282° |
| 2026-04-29 18:03 | 17.27775 | -62.75228 | 7653 ft | 289 kts | 254° |
| 2026-04-29 18:04 | 17.26907 | -62.77090 | 7228 ft | 284 kts | 227° |
| 2026-04-29 18:04 | 17.25531 | -62.78565 | 6809 ft | 283 kts | 223° |
| 2026-04-29 18:04 | 17.24127 | -62.80013 | 6411 ft | 282 kts | 223° |
| 2026-04-29 18:04 | 17.22637 | -62.81272 | 6015 ft | 277 kts | 207° |
| 2026-04-29 18:05 | 17.20878 | -62.82017 | 5598 ft | 271 kts | 190° |
| 2026-04-29 18:05 | 17.19022 | -62.82206 | 5172 ft | 266 kts | 176° |
| 2026-04-29 18:05 | 17.17202 | -62.82167 | 4992 ft | 254 kts | 177° |
| 2026-04-29 18:05 | 17.15508 | -62.82291 | 4989 ft | 237 kts | 197° |
| 2026-04-29 18:06 | 17.14181 | -62.83227 | 4994 ft | 241 kts | 232° |
| 2026-04-29 18:06 | 17.13727 | -62.84224 | 5000 ft | 246 kts | 257° |
| 2026-04-29 18:06 | 17.13890 | -62.85990 | 4994 ft | 250 kts | 296° |
| 2026-04-29 18:06 | 17.15060 | -62.87299 | 4991 ft | 250 kts | 335° |
| 2026-04-29 18:07 | 17.16740 | -62.87591 | 4994 ft | 247 kts | 14° |
| 2026-04-29 18:07 | 17.18232 | -62.86795 | 4924 ft | 241 kts | 44° |
| 2026-04-29 18:07 | 17.19403 | -62.85582 | 4801 ft | 231 kts | 51° |
| 2026-04-29 18:07 | 17.20427 | -62.84365 | 4652 ft | 214 kts | 52° |
| 2026-04-29 18:08 | 17.21375 | -62.83240 | 4477 ft | 198 kts | 51° |
| 2026-04-29 18:08 | 17.22293 | -62.82189 | 4103 ft | 193 kts | 50° |
| 2026-04-29 18:08 | 17.23188 | -62.81184 | 3741 ft | 190 kts | 50° |
| 2026-04-29 18:08 | 17.24091 | -62.80185 | 3385 ft | 188 kts | 50° |
| 2026-04-29 18:09 | 17.24996 | -62.79201 | 3035 ft | 186 kts | 49° |
| 2026-04-29 18:09 | 17.25870 | -62.78265 | 2696 ft | 176 kts | 49° |
| 2026-04-29 18:09 | 17.26725 | -62.77360 | 2250 ft | 173 kts | 48° |
| 2026-04-29 18:09 | 17.27569 | -62.76468 | 1811 ft | 171 kts | 49° |
| 2026-04-29 18:10 | 17.28266 | -62.75535 | 1572 ft | 154 kts | 51° |
| 2026-04-29 18:10 | 17.28992 | -62.74758 | 1249 ft | 148 kts | 47° |
| 2026-04-29 18:10 | 17.29730 | -62.73989 | 750 ft | 152 kts | 50° |
| 2026-04-29 18:10 | 17.30345 | -62.73120 | 347 ft | 143 kts | 61° |
| 2026-04-29 18:11 | 17.30859 | -62.72274 | 176 ft | 128 kts | 57° |
| 2026-04-29 18:11 | 17.31214 | -62.71710 | 172 ft | 60 kts | 57° |
| 2026-04-29 18:11 | 17.31365 | -62.71477 | 170 ft | 29 kts | 56° |
| 2026-04-29 18:11 | 17.31413 | -62.71383 | 169 ft | 2 kts | 124° |
| 2026-04-29 18:12 | 17.31409 | -62.71381 | 169 ft | 0 kts | 146° |